createdAt,value
2022-12-23T00:00:29.724Z,54.60
2022-12-23T00:02:56.610Z,53.45
2022-12-23T00:05:23.526Z,47.50
2022-12-23T00:07:50.184Z,47.58
2022-12-23T00:10:17.095Z,47.25
2022-12-23T00:13:02.065Z,47.45
2022-12-23T00:15:28.818Z,39.78
2022-12-23T00:17:55.550Z,38.53
2022-12-23T00:20:22.252Z,37.80
2022-12-23T00:23:06.850Z,35.80
2022-12-23T00:25:41.177Z,31.13
2022-12-23T00:28:12.598Z,38.75
2022-12-23T00:30:52.779Z,37.20
2022-12-23T00:33:24.537Z,41.08
2022-12-23T00:35:52.184Z,38.85
2022-12-23T00:38:38.868Z,41.75
2022-12-23T00:41:27.478Z,50.17
2022-12-23T00:43:54.092Z,48.28
2022-12-23T00:46:20.785Z,48.47
2022-12-23T00:49:05.637Z,56.90
2022-12-23T00:51:32.343Z,56.33
2022-12-23T00:53:59.007Z,49.88
2022-12-23T00:56:25.648Z,39.33
2022-12-23T00:58:52.293Z,34.70
2022-12-23T01:01:37.670Z,34.70
2022-12-23T01:04:23.376Z,32.75
2022-12-23T01:06:50.126Z,29.95
2022-12-23T01:09:16.983Z,28.23
2022-12-23T01:11:43.641Z,22.60
2022-12-23T01:14:11.629Z,24.65
2022-12-23T01:16:39.101Z,26.92
2022-12-23T01:19:07.292Z,28.92
2022-12-23T01:21:34.609Z,29.63
2022-12-23T01:24:01.635Z,33.58
2022-12-23T01:26:28.519Z,42.38
2022-12-23T01:28:57.086Z,33.28
2022-12-23T01:31:25.924Z,36.35
2022-12-23T01:33:53.545Z,34.58
2022-12-23T01:36:21.354Z,32.45
2022-12-23T01:38:48.378Z,27.13
2022-12-23T01:41:37.195Z,26.00
2022-12-23T01:44:24.013Z,25.95
2022-12-23T01:46:50.791Z,20.33
2022-12-23T01:49:17.586Z,19.30
2022-12-23T01:51:44.372Z,19.80
2022-12-23T01:54:11.052Z,19.77
2022-12-23T01:56:39.947Z,16.63
2022-12-23T01:59:10.126Z,19.23
2022-12-23T02:01:55.758Z,16.98
2022-12-23T02:04:24.904Z,26.02
2022-12-23T02:07:10.439Z,25.25
2022-12-23T02:09:40.972Z,27.25
2022-12-23T02:12:21.658Z,49.03
2022-12-23T02:15:07.034Z,37.72
2022-12-23T02:17:54.717Z,104.35
2022-12-23T02:20:24.002Z,82.32
2022-12-23T02:22:59.884Z,78.28
2022-12-23T02:25:38.639Z,58.03
2022-12-23T02:28:36.884Z,97.68
2022-12-23T02:31:12.540Z,54.78
2022-12-23T02:34:11.628Z,48.83
2022-12-23T02:36:51.580Z,35.95
2022-12-23T02:39:46.014Z,38.42
2022-12-23T02:42:20.486Z,46.05
2022-12-23T02:44:53.307Z,45.40
2022-12-23T02:47:27.931Z,43.25
2022-12-23T02:50:02.836Z,31.48
2022-12-23T02:52:32.831Z,29.15
2022-12-23T02:55:05.635Z,38.25
2022-12-23T02:57:37.249Z,38.85
2022-12-23T03:00:05.747Z,40.03
2022-12-23T03:02:37.472Z,32.72
2022-12-23T03:05:04.743Z,37.15
2022-12-23T03:07:36.760Z,48.10
2022-12-23T03:10:40.233Z,45.40
2022-12-23T03:13:34.792Z,42.65
2022-12-23T03:16:20.791Z,37.03
2022-12-23T03:19:32.528Z,48.28
2022-12-23T03:22:21.875Z,40.33
2022-12-23T03:24:48.531Z,32.88
2022-12-23T03:27:31.317Z,41.05
2022-12-23T03:30:09.445Z,48.40
2022-12-23T03:32:43.951Z,46.10
2022-12-23T03:35:16.299Z,45.33
2022-12-23T03:40:20.816Z,43.95
2022-12-23T03:42:52.373Z,45.40
2022-12-23T03:45:41.548Z,42.20
2022-12-23T03:48:21.738Z,37.75
2022-12-23T03:50:56.115Z,35.03
2022-12-23T03:53:31.151Z,35.53
2022-12-23T03:56:09.355Z,35.83
2022-12-23T03:58:44.998Z,24.70
2022-12-23T04:01:39.652Z,31.92
2022-12-23T04:04:22.292Z,25.95
2022-12-23T04:06:58.329Z,31.42
2022-12-23T04:09:28.020Z,30.23
2022-12-23T04:11:55.586Z,31.80
2022-12-23T04:14:22.734Z,27.45
2022-12-23T04:16:56.131Z,25.00
2022-12-23T04:19:23.038Z,19.55
2022-12-23T04:21:49.933Z,26.95
2022-12-23T04:24:16.627Z,22.85
2022-12-23T04:26:43.265Z,15.95
2022-12-23T04:29:10.024Z,16.55
2022-12-23T04:31:36.871Z,17.35
2022-12-23T04:34:03.691Z,11.63
2022-12-23T04:36:30.748Z,12.43
2022-12-23T04:38:57.500Z,13.20
2022-12-23T04:41:24.446Z,9.38
2022-12-23T04:43:53.250Z,8.13
2022-12-23T04:46:20.554Z,8.13
2022-12-23T04:48:47.252Z,6.32
2022-12-23T04:51:13.996Z,11.05
2022-12-23T04:53:40.637Z,8.75
2022-12-23T04:56:07.337Z,9.70
2022-12-23T04:58:34.064Z,6.03
2022-12-23T05:01:05.957Z,6.25
2022-12-23T05:03:32.866Z,3.17
2022-12-23T05:06:00.021Z,3.08
2022-12-23T05:08:26.749Z,4.57
2022-12-23T05:10:53.402Z,8.13
2022-12-23T05:13:20.411Z,8.25
2022-12-23T05:15:50.236Z,5.90
2022-12-23T05:18:17.139Z,6.15
2022-12-23T05:20:44.152Z,6.80
2022-12-23T05:23:11.163Z,4.82
2022-12-23T05:25:39.160Z,3.10
2022-12-23T05:28:08.002Z,13.57
2022-12-23T05:30:34.693Z,2.70
2022-12-23T05:33:01.426Z,4.28
2022-12-23T05:35:28.427Z,9.50
2022-12-23T05:37:55.158Z,6.40
2022-12-23T05:40:26.519Z,10.95
2022-12-23T05:42:55.812Z,9.75
2022-12-23T05:45:22.860Z,10.35
2022-12-23T05:47:49.510Z,13.90
2022-12-23T05:50:16.180Z,10.73
2022-12-23T05:52:42.806Z,12.20
2022-12-23T05:55:09.660Z,5.28
2022-12-23T05:57:36.300Z,10.90
2022-12-23T06:00:04.274Z,3.38
2022-12-23T06:02:31.136Z,3.80
2022-12-23T06:04:58.167Z,8.00
2022-12-23T06:07:24.799Z,4.00
2022-12-23T06:09:51.591Z,10.55
2022-12-23T06:12:18.278Z,8.38
2022-12-23T06:14:44.933Z,7.88
2022-12-23T06:17:11.555Z,8.65
2022-12-23T06:19:38.143Z,3.83
2022-12-23T06:22:04.836Z,4.03
2022-12-23T06:24:31.576Z,4.22
2022-12-23T06:26:58.260Z,4.10
2022-12-23T06:29:25.451Z,8.20
2022-12-23T06:31:52.253Z,4.30
2022-12-23T06:34:18.940Z,2.40
2022-12-23T06:36:45.675Z,11.05
2022-12-23T06:39:12.399Z,11.20
2022-12-23T06:41:39.077Z,8.68
2022-12-23T06:44:06.001Z,4.50
2022-12-23T06:46:33.075Z,3.22
2022-12-23T06:48:59.769Z,5.25
2022-12-23T06:51:26.489Z,2.55
2022-12-23T06:53:53.338Z,9.07
2022-12-23T06:56:20.612Z,11.88
2022-12-23T06:58:47.343Z,9.50
2022-12-23T07:01:14.188Z,10.00
2022-12-23T07:03:41.029Z,3.78
2022-12-23T07:06:08.027Z,6.82
2022-12-23T07:08:34.702Z,10.40
2022-12-23T07:11:03.468Z,9.02
2022-12-23T07:13:31.229Z,7.28
2022-12-23T07:16:06.185Z,7.90
2022-12-23T07:18:36.128Z,3.88
2022-12-23T07:21:03.839Z,4.43
2022-12-23T07:23:30.766Z,5.70
2022-12-23T07:25:57.657Z,8.80
2022-12-23T07:28:24.474Z,7.32
2022-12-23T07:30:51.560Z,12.38
2022-12-23T07:33:18.210Z,8.77
2022-12-23T07:35:44.893Z,13.23
2022-12-23T07:38:11.596Z,10.27
2022-12-23T07:40:38.284Z,13.35
2022-12-23T07:43:05.732Z,7.20
2022-12-23T07:45:32.554Z,4.25
2022-12-23T07:48:01.144Z,10.75
2022-12-23T07:50:28.494Z,7.88
2022-12-23T07:52:55.238Z,6.38
2022-12-23T07:55:22.291Z,9.35
2022-12-23T07:57:50.144Z,6.78
2022-12-23T08:00:17.486Z,7.38
2022-12-23T08:02:44.314Z,3.72
2022-12-23T08:05:12.251Z,9.50
2022-12-23T08:07:39.632Z,13.07
2022-12-23T08:10:07.156Z,8.05
2022-12-23T08:12:34.131Z,6.13
2022-12-23T08:15:00.745Z,5.05
2022-12-23T08:17:29.266Z,11.93
2022-12-23T08:19:56.996Z,14.10
2022-12-23T08:22:24.668Z,11.18
2022-12-23T08:24:52.660Z,13.20
2022-12-23T08:27:19.792Z,10.50
2022-12-23T08:29:46.503Z,10.55
2022-12-23T08:32:13.204Z,6.25
2022-12-23T08:34:39.990Z,8.80
2022-12-23T08:37:06.747Z,14.80
2022-12-23T08:39:33.453Z,9.73
2022-12-23T08:42:00.107Z,9.50
2022-12-23T08:44:28.146Z,14.80
2022-12-23T08:46:55.579Z,9.63
2022-12-23T08:49:22.958Z,9.38
2022-12-23T08:51:49.789Z,9.27
2022-12-23T08:54:17.536Z,5.18
2022-12-23T08:56:44.892Z,13.00
2022-12-23T08:59:19.291Z,16.42
2022-12-23T09:01:47.525Z,7.03
2022-12-23T09:04:14.663Z,6.55
2022-12-23T09:06:42.833Z,16.52
2022-12-23T09:09:11.917Z,8.85
2022-12-23T09:11:39.136Z,10.20
2022-12-23T09:14:08.602Z,15.15
2022-12-23T09:16:36.110Z,3.70
2022-12-23T09:19:03.176Z,11.73
2022-12-23T09:21:29.999Z,16.63
2022-12-23T09:23:56.704Z,10.20
2022-12-23T09:26:26.997Z,12.52
2022-12-23T09:28:57.520Z,10.60
2022-12-23T09:31:27.965Z,6.50
2022-12-23T09:33:59.401Z,22.30
2022-12-23T09:36:26.024Z,9.50
2022-12-23T09:38:57.407Z,21.75
2022-12-23T09:43:54.478Z,5.60
2022-12-23T09:46:24.296Z,11.60
2022-12-23T09:49:13.174Z,9.68
2022-12-23T09:51:39.881Z,6.53
2022-12-23T09:54:23.153Z,7.57
2022-12-23T09:57:15.893Z,12.68
2022-12-23T10:02:30.315Z,6.82
2022-12-23T10:05:09.915Z,6.63
2022-12-23T10:07:45.914Z,7.00
2022-12-23T10:10:25.296Z,5.93
2022-12-23T10:12:53.925Z,10.02
2022-12-23T10:15:29.995Z,3.67
2022-12-23T10:18:01.671Z,10.95
2022-12-23T10:20:44.593Z,9.80
2022-12-23T10:23:17.149Z,5.22
2022-12-23T10:25:51.120Z,9.25
2022-12-23T10:28:18.170Z,12.43
2022-12-23T10:31:17.188Z,15.65
2022-12-23T10:33:49.779Z,6.95
2022-12-23T10:36:28.086Z,13.02
2022-12-23T10:39:33.207Z,17.38
2022-12-23T10:42:29.678Z,16.25
2022-12-23T10:45:05.334Z,139.80
2022-12-23T10:47:47.193Z,12.63
2022-12-23T10:50:35.994Z,10.88
2022-12-23T10:53:10.161Z,11.38
2022-12-23T10:55:38.701Z,8.18
2022-12-23T10:58:11.381Z,9.85
2022-12-23T11:00:41.209Z,8.90
2022-12-23T11:03:17.790Z,19.60
2022-12-23T11:05:46.658Z,8.75
2022-12-23T11:08:13.420Z,11.23
2022-12-23T11:10:40.257Z,22.00
2022-12-23T11:13:06.924Z,26.92
2022-12-23T11:15:35.197Z,13.50
2022-12-23T11:18:22.130Z,32.30
2022-12-23T11:21:04.239Z,12.88
2022-12-23T11:23:35.157Z,10.95
2022-12-23T11:26:07.760Z,13.27
2022-12-23T11:28:38.312Z,14.05
2022-12-23T11:31:12.266Z,8.70
2022-12-23T11:33:53.006Z,9.45
2022-12-23T11:36:27.775Z,15.57
2022-12-23T11:39:00.052Z,10.23
2022-12-23T11:41:44.807Z,12.38
2022-12-23T11:44:26.483Z,10.30
2022-12-23T11:46:53.599Z,12.93
2022-12-23T11:49:23.108Z,19.05
2022-12-23T11:52:02.681Z,11.32
2022-12-23T11:54:29.955Z,9.73
2022-12-23T11:56:58.242Z,12.85
2022-12-23T11:59:40.721Z,11.30
2022-12-23T12:02:20.536Z,15.63
2022-12-23T12:04:58.078Z,9.20
2022-12-23T12:07:26.130Z,21.27
2022-12-23T12:09:56.654Z,8.52
2022-12-23T12:12:23.680Z,32.35
2022-12-23T12:14:56.995Z,11.05
2022-12-23T12:17:32.787Z,15.25
2022-12-23T12:20:14.693Z,20.13
2022-12-23T12:22:59.493Z,17.73
2022-12-23T12:25:44.348Z,18.25
2022-12-23T12:28:15.759Z,11.95
2022-12-23T12:30:57.852Z,16.13
2022-12-23T12:33:31.872Z,12.65
2022-12-23T12:36:12.799Z,21.88
2022-12-23T12:38:48.402Z,19.30
2022-12-23T12:41:31.288Z,16.35
2022-12-23T12:44:26.273Z,13.02
2022-12-23T12:47:44.867Z,15.05
2022-12-23T12:50:12.265Z,5.75
2022-12-23T12:52:42.902Z,6.57
2022-12-23T12:55:28.364Z,9.25
2022-12-23T12:57:55.631Z,9.50
2022-12-23T13:00:25.182Z,7.45
2022-12-23T13:03:11.442Z,8.25
2022-12-23T13:09:42.726Z,6.15
2022-12-23T13:16:35.296Z,6.43
2022-12-23T13:23:43.359Z,4.50
2022-12-23T13:30:38.322Z,5.22
2022-12-23T13:38:11.529Z,4.88
2022-12-23T13:41:30.281Z,9.93
2022-12-23T13:44:18.918Z,3.60
2022-12-23T13:47:59.672Z,7.97
2022-12-23T13:51:12.448Z,7.40
2022-12-23T13:58:18.795Z,9.13
2022-12-23T14:05:58.224Z,10.13
2022-12-23T14:08:46.237Z,9.10
2022-12-23T14:11:34.228Z,11.23
2022-12-23T14:18:44.890Z,5.68
2022-12-23T14:21:47.030Z,10.55
2022-12-23T14:25:04.623Z,14.75
2022-12-23T14:28:16.082Z,18.05
2022-12-23T14:35:22.789Z,18.98
2022-12-23T14:38:15.746Z,23.92
2022-12-23T14:41:25.816Z,23.88
2022-12-23T14:44:41.019Z,32.85
2022-12-23T14:47:30.562Z,16.08
2022-12-23T14:50:32.753Z,18.20
2022-12-23T14:57:27.703Z,18.88
2022-12-23T15:04:43.880Z,25.42
2022-12-23T15:07:36.542Z,22.60
2022-12-23T15:17:31.946Z,18.60
2022-12-23T15:20:23.556Z,25.38
2022-12-23T15:27:29.691Z,25.08
2022-12-23T15:34:24.658Z,32.35
2022-12-23T15:37:15.840Z,25.77
2022-12-23T15:44:20.518Z,24.25
2022-12-23T15:51:57.705Z,21.80
2022-12-23T15:58:42.633Z,27.45
2022-12-23T16:10:23.001Z,28.77
2022-12-23T16:13:18.337Z,30.90
2022-12-23T16:16:39.068Z,23.50
2022-12-23T16:23:32.895Z,32.20
2022-12-23T16:26:21.421Z,31.60
2022-12-23T16:29:10.318Z,26.00
2022-12-23T16:40:14.318Z,37.35
2022-12-23T16:43:09.739Z,38.28
2022-12-23T16:49:33.424Z,49.60
2022-12-23T16:52:24.738Z,48.60
2022-12-23T16:55:16.797Z,42.45
2022-12-23T17:02:21.376Z,32.47
2022-12-23T17:05:15.433Z,35.47
2022-12-23T17:14:21.281Z,25.35
2022-12-23T17:16:49.050Z,29.10
2022-12-23T17:19:19.283Z,26.45
2022-12-23T17:21:58.046Z,20.73
2022-12-23T17:24:26.894Z,23.08
2022-12-23T17:31:08.728Z,22.02
2022-12-23T17:38:01.801Z,26.40
2022-12-23T17:40:50.274Z,34.00
2022-12-23T17:43:37.214Z,22.00
2022-12-23T17:46:21.528Z,27.30
2022-12-23T17:52:38.791Z,17.10
2022-12-23T17:55:09.535Z,24.40
2022-12-23T17:57:36.148Z,28.13
2022-12-23T18:00:31.886Z,26.42
2022-12-23T18:07:18.375Z,28.40
2022-12-23T18:09:45.105Z,31.35
2022-12-23T18:16:01.957Z,25.08
2022-12-23T18:22:59.895Z,33.97
2022-12-23T18:25:46.916Z,24.23
2022-12-23T18:36:45.725Z,35.97
2022-12-23T18:39:32.724Z,26.83
2022-12-23T18:42:20.395Z,30.13
2022-12-23T18:45:41.902Z,34.20
2022-12-23T18:49:10.975Z,36.03
2022-12-23T18:52:45.957Z,31.52
2022-12-23T18:55:13.415Z,26.80
2022-12-23T18:58:38.059Z,30.50
2022-12-23T19:01:04.818Z,28.25
2022-12-23T19:03:32.620Z,27.08
2022-12-23T19:06:06.748Z,28.83
2022-12-23T19:08:35.359Z,33.78
2022-12-23T19:11:08.718Z,37.15
2022-12-23T19:13:35.361Z,36.00
2022-12-23T19:16:02.130Z,34.15
2022-12-23T19:18:28.855Z,35.17
2022-12-23T19:20:55.569Z,31.58
2022-12-23T19:23:22.200Z,33.20
2022-12-23T19:25:54.816Z,34.00
2022-12-23T19:32:15.574Z,29.15
2022-12-23T19:34:42.233Z,28.65
2022-12-23T19:37:08.983Z,26.45
2022-12-23T19:43:26.248Z,17.20
2022-12-23T19:46:00.040Z,18.67
2022-12-23T19:48:27.808Z,21.63
2022-12-23T19:50:57.493Z,29.05
2022-12-23T19:53:24.350Z,26.33
2022-12-23T19:56:13.569Z,18.35
2022-12-23T19:59:00.565Z,31.55
2022-12-23T20:01:47.761Z,24.58
2022-12-23T20:08:47.165Z,23.70
2022-12-23T20:15:25.065Z,19.80
2022-12-23T20:18:12.012Z,28.08
2022-12-23T20:29:20.686Z,24.85
2022-12-23T20:32:18.937Z,24.38
2022-12-23T20:34:45.649Z,27.48
2022-12-23T20:37:35.246Z,29.50
2022-12-23T20:40:02.096Z,19.20
2022-12-23T20:47:49.915Z,28.38
2022-12-23T20:57:57.357Z,16.75
2022-12-23T21:00:24.234Z,37.67
2022-12-23T21:06:52.202Z,16.73
2022-12-23T21:09:39.203Z,40.65
2022-12-23T21:12:26.675Z,35.25
2022-12-23T21:15:14.351Z,29.58
2022-12-23T21:18:01.307Z,41.00
2022-12-23T21:20:48.631Z,23.55
2022-12-23T21:23:40.799Z,42.53
2022-12-23T21:34:39.803Z,43.75
2022-12-23T21:41:30.521Z,19.35
2022-12-23T21:44:18.169Z,29.00
2022-12-23T21:47:05.335Z,23.67
2022-12-23T21:53:56.652Z,19.60
2022-12-23T21:56:44.032Z,22.45
2022-12-23T21:59:34.930Z,29.30
2022-12-23T22:06:38.557Z,24.77
2022-12-23T22:13:50.886Z,19.92
2022-12-23T22:16:20.848Z,26.92
2022-12-23T22:18:48.031Z,13.43
2022-12-23T22:24:56.354Z,18.52
2022-12-23T22:31:27.376Z,19.70
2022-12-23T22:33:54.082Z,15.38
2022-12-23T22:43:52.246Z,16.02
2022-12-23T22:46:19.249Z,15.25
2022-12-23T22:48:46.719Z,13.65
2022-12-23T22:51:24.952Z,10.88
2022-12-23T22:53:52.295Z,14.57
2022-12-23T23:04:02.019Z,13.20
2022-12-23T23:10:45.961Z,14.05
2022-12-23T23:13:12.579Z,7.57
2022-12-23T23:23:40.706Z,7.13
2022-12-23T23:27:11.907Z,12.38
2022-12-23T23:33:34.672Z,13.10
2022-12-23T23:44:02.476Z,6.63
2022-12-23T23:47:40.787Z,4.60
2022-12-23T23:54:18.355Z,9.20
